sensor_id;sensor_type;location;lat;lon;timestamp;pressure;altitude;pressure_sealevel;temperature;humidity
60258;BME280;46115;44.484;11.314;2023-05-16T00:03:33;99268.84;;;16.07;87.31
60258;BME280;46115;44.484;11.314;2023-05-16T00:07:36;99243.03;;;15.98;88.95
60258;BME280;46115;44.484;11.314;2023-05-16T00:11:39;99253.97;;;16.14;87.67
60258;BME280;46115;44.484;11.314;2023-05-16T00:15:45;99254.25;;;16.11;86.29
60258;BME280;46115;44.484;11.314;2023-05-16T00:19:47;99253.84;;;16.44;84.41
60258;BME280;46115;44.484;11.314;2023-05-16T00:23:49;99251.31;;;16.14;87.44
60258;BME280;46115;44.484;11.314;2023-05-16T00:27:52;99244.00;;;16.45;85.10
60258;BME280;46115;44.484;11.314;2023-05-16T00:31:56;99226.59;;;15.83;88.02
60258;BME280;46115;44.484;11.314;2023-05-16T00:35:58;99245.97;;;16.23;85.61
60258;BME280;46115;44.484;11.314;2023-05-16T00:40:01;99202.75;;;15.72;87.73
60258;BME280;46115;44.484;11.314;2023-05-16T00:44:04;99234.50;;;16.04;86.45
60258;BME280;46115;44.484;11.314;2023-05-16T00:48:08;99242.31;;;16.25;85.09
60258;BME280;46115;44.484;11.314;2023-05-16T00:52:12;99229.69;;;15.88;87.79
60258;BME280;46115;44.484;11.314;2023-05-16T00:56:16;99216.09;;;16.20;86.38
60258;BME280;46115;44.484;11.314;2023-05-16T01:00:19;99218.75;;;16.20;86.00
60258;BME280;46115;44.484;11.314;2023-05-16T01:04:23;99212.69;;;16.47;85.61
60258;BME280;46115;44.484;11.314;2023-05-16T01:08:26;99220.84;;;16.26;86.96
60258;BME280;46115;44.484;11.314;2023-05-16T01:12:36;99229.56;;;16.28;85.27
60258;BME280;46115;44.484;11.314;2023-05-16T01:16:45;99204.19;;;16.05;87.15
60258;BME280;46115;44.484;11.314;2023-05-16T01:20:52;99187.59;;;15.91;88.70
60258;BME280;46115;44.484;11.314;2023-05-16T01:25:05;99173.72;;;15.78;89.06
60258;BME280;46115;44.484;11.314;2023-05-16T01:29:15;99176.38;;;16.17;87.75
60258;BME280;46115;44.484;11.314;2023-05-16T01:33:17;99179.47;;;16.22;86.42
60258;BME280;46115;44.484;11.314;2023-05-16T01:37:24;99166.88;;;16.05;88.05
60258;BME280;46115;44.484;11.314;2023-05-16T01:41:38;99152.41;;;15.88;89.81
60258;BME280;46115;44.484;11.314;2023-05-16T01:45:47;99138.78;;;16.20;88.85
60258;BME280;46115;44.484;11.314;2023-05-16T01:49:57;99138.13;;;15.99;89.07
60258;BME280;46115;44.484;11.314;2023-05-16T01:54:05;99133.91;;;16.06;88.89
60258;BME280;46115;44.484;11.314;2023-05-16T01:58:10;99113.28;;;15.98;88.65
60258;BME280;46115;44.484;11.314;2023-05-16T02:02:16;99117.34;;;15.93;88.55
60258;BME280;46115;44.484;11.314;2023-05-16T02:06:19;99120.03;;;15.73;90.75
60258;BME280;46115;44.484;11.314;2023-05-16T02:10:21;99122.38;;;15.96;89.85
60258;BME280;46115;44.484;11.314;2023-05-16T02:14:25;99126.16;;;16.32;86.57
60258;BME280;46115;44.484;11.314;2023-05-16T02:18:28;99132.03;;;16.35;86.29
60258;BME280;46115;44.484;11.314;2023-05-16T02:22:32;99122.13;;;15.99;88.08
60258;BME280;46115;44.484;11.314;2023-05-16T02:26:34;99129.09;;;16.19;87.16
60258;BME280;46115;44.484;11.314;2023-05-16T02:30:37;99134.47;;;16.00;88.95
60258;BME280;46115;44.484;11.314;2023-05-16T02:34:40;99171.03;;;16.36;88.83
60258;BME280;46115;44.484;11.314;2023-05-16T02:38:43;99170.78;;;16.10;90.21
60258;BME280;46115;44.484;11.314;2023-05-16T02:42:45;99157.47;;;15.72;94.94
60258;BME280;46115;44.484;11.314;2023-05-16T02:46:47;99166.00;;;15.95;93.74
60258;BME280;46115;44.484;11.314;2023-05-16T02:50:51;99164.19;;;16.05;95.21
60258;BME280;46115;44.484;11.314;2023-05-16T02:54:53;99158.47;;;16.00;97.08
60258;BME280;46115;44.484;11.314;2023-05-16T02:58:56;99200.50;;;15.77;95.17
60258;BME280;46115;44.484;11.314;2023-05-16T03:02:58;99176.22;;;15.11;100.00
60258;BME280;46115;44.484;11.314;2023-05-16T03:07:02;99178.78;;;15.22;100.00
60258;BME280;46115;44.484;11.314;2023-05-16T03:11:09;99177.59;;;14.95;99.21
60258;BME280;46115;44.484;11.314;2023-05-16T03:15:11;99182.28;;;15.22;99.67
60258;BME280;46115;44.484;11.314;2023-05-16T03:19:13;99202.69;;;15.03;99.26
60258;BME280;46115;44.484;11.314;2023-05-16T03:23:17;99199.59;;;14.77;100.00
60258;BME280;46115;44.484;11.314;2023-05-16T03:27:21;99194.16;;;14.78;100.00
60258;BME280;46115;44.484;11.314;2023-05-16T03:31:24;99193.84;;;14.72;100.00
60258;BME280;46115;44.484;11.314;2023-05-16T03:35:27;99204.00;;;14.04;100.00
60258;BME280;46115;44.484;11.314;2023-05-16T03:39:30;99210.91;;;13.95;100.00
60258;BME280;46115;44.484;11.314;2023-05-16T03:43:33;99213.47;;;14.18;100.00
60258;BME280;46115;44.484;11.314;2023-05-16T03:47:35;99216.97;;;14.18;100.00
60258;BME280;46115;44.484;11.314;2023-05-16T03:51:37;99217.59;;;14.11;100.00
60258;BME280;46115;44.484;11.314;2023-05-16T03:55:41;99199.34;;;13.85;100.00
60258;BME280;46115;44.484;11.314;2023-05-16T03:59:44;99204.38;;;14.20;100.00
60258;BME280;46115;44.484;11.314;2023-05-16T04:03:47;99201.25;;;14.26;100.00
60258;BME280;46115;44.484;11.314;2023-05-16T04:07:50;99193.84;;;14.30;100.00
60258;BME280;46115;44.484;11.314;2023-05-16T04:11:54;99185.03;;;14.50;100.00
60258;BME280;46115;44.484;11.314;2023-05-16T04:15:57;99168.91;;;14.63;100.00
60258;BME280;46115;44.484;11.314;2023-05-16T04:19:59;99168.25;;;14.50;100.00
60258;BME280;46115;44.484;11.314;2023-05-16T04:24:02;99162.47;;;14.45;100.00
60258;BME280;46115;44.484;11.314;2023-05-16T04:28:05;99156.78;;;14.80;100.00
60258;BME280;46115;44.484;11.314;2023-05-16T04:32:08;99150.75;;;14.47;100.00
60258;BME280;46115;44.484;11.314;2023-05-16T04:36:11;99140.25;;;14.76;100.00
60258;BME280;46115;44.484;11.314;2023-05-16T04:40:13;99148.69;;;14.91;99.72
60258;BME280;46115;44.484;11.314;2023-05-16T04:44:18;99144.56;;;14.68;100.00
60258;BME280;46115;44.484;11.314;2023-05-16T04:48:21;99158.31;;;14.82;100.00
60258;BME280;46115;44.484;11.314;2023-05-16T04:52:23;99154.22;;;14.69;100.00
60258;BME280;46115;44.484;11.314;2023-05-16T04:56:26;99159.16;;;14.52;100.00
60258;BME280;46115;44.484;11.314;2023-05-16T05:00:29;99157.28;;;14.94;99.94
60258;BME280;46115;44.484;11.314;2023-05-16T05:04:32;99163.97;;;14.58;100.00
60258;BME280;46115;44.484;11.314;2023-05-16T05:08:34;99165.53;;;14.61;100.00
60258;BME280;46115;44.484;11.314;2023-05-16T05:12:36;99149.09;;;14.56;100.00
60258;BME280;46115;44.484;11.314;2023-05-16T05:16:40;99147.38;;;14.76;100.00
60258;BME280;46115;44.484;11.314;2023-05-16T05:20:43;99148.13;;;14.87;100.00
60258;BME280;46115;44.484;11.314;2023-05-16T05:24:46;99159.13;;;14.43;100.00
60258;BME280;46115;44.484;11.314;2023-05-16T05:28:48;99129.66;;;14.34;100.00
60258;BME280;46115;44.484;11.314;2023-05-16T05:32:52;99147.34;;;14.66;100.00
60258;BME280;46115;44.484;11.314;2023-05-16T05:36:54;99158.59;;;14.49;100.00
60258;BME280;46115;44.484;11.314;2023-05-16T05:40:57;99166.22;;;14.21;100.00
60258;BME280;46115;44.484;11.314;2023-05-16T05:44:59;99140.16;;;14.57;100.00
60258;BME280;46115;44.484;11.314;2023-05-16T05:49:03;99140.16;;;14.57;100.00
60258;BME280;46115;44.484;11.314;2023-05-16T05:53:05;99133.38;;;14.74;100.00
60258;BME280;46115;44.484;11.314;2023-05-16T05:57:08;99102.34;;;14.53;100.00
60258;BME280;46115;44.484;11.314;2023-05-16T06:01:10;99117.59;;;14.10;100.00
60258;BME280;46115;44.484;11.314;2023-05-16T06:05:14;99105.78;;;14.65;100.00
60258;BME280;46115;44.484;11.314;2023-05-16T06:09:16;99101.19;;;14.46;100.00
60258;BME280;46115;44.484;11.314;2023-05-16T06:13:19;99097.59;;;14.57;100.00
60258;BME280;46115;44.484;11.314;2023-05-16T06:17:21;99069.63;;;14.32;100.00
60258;BME280;46115;44.484;11.314;2023-05-16T06:21:25;99058.56;;;14.27;100.00
60258;BME280;46115;44.484;11.314;2023-05-16T06:25:28;99071.72;;;14.08;100.00
60258;BME280;46115;44.484;11.314;2023-05-16T06:29:30;99074.53;;;13.64;100.00
60258;BME280;46115;44.484;11.314;2023-05-16T06:33:33;99089.34;;;14.09;100.00
60258;BME280;46115;44.484;11.314;2023-05-16T06:37:37;99088.38;;;14.30;100.00
60258;BME280;46115;44.484;11.314;2023-05-16T06:41:39;99106.66;;;14.24;100.00
60258;BME280;46115;44.484;11.314;2023-05-16T06:45:45;99085.56;;;14.53;100.00
60258;BME280;46115;44.484;11.314;2023-05-16T06:49:48;99073.94;;;14.23;100.00
60258;BME280;46115;44.484;11.314;2023-05-16T06:53:52;99095.06;;;14.25;100.00
60258;BME280;46115;44.484;11.314;2023-05-16T06:57:54;99098.03;;;14.31;100.00
60258;BME280;46115;44.484;11.314;2023-05-16T07:01:57;99090.09;;;14.20;100.00
60258;BME280;46115;44.484;11.314;2023-05-16T07:05:59;99109.38;;;14.33;100.00
60258;BME280;46115;44.484;11.314;2023-05-16T07:10:03;99119.47;;;14.19;100.00
60258;BME280;46115;44.484;11.314;2023-05-16T07:14:06;99116.44;;;14.44;100.00
60258;BME280;46115;44.484;11.314;2023-05-16T07:18:09;99114.50;;;14.46;100.00
60258;BME280;46115;44.484;11.314;2023-05-16T07:22:12;99118.00;;;14.47;100.00
60258;BME280;46115;44.484;11.314;2023-05-16T07:26:15;99117.59;;;14.30;100.00
60258;BME280;46115;44.484;11.314;2023-05-16T07:30:18;99110.31;;;14.53;100.00
60258;BME280;46115;44.484;11.314;2023-05-16T07:34:21;99117.38;;;14.64;100.00
60258;BME280;46115;44.484;11.314;2023-05-16T07:38:24;99117.59;;;14.51;100.00
60258;BME280;46115;44.484;11.314;2023-05-16T07:42:28;99119.44;;;14.30;100.00
60258;BME280;46115;44.484;11.314;2023-05-16T07:46:30;99106.50;;;14.46;100.00
60258;BME280;46115;44.484;11.314;2023-05-16T07:50:33;99071.00;;;14.26;100.00
60258;BME280;46115;44.484;11.314;2023-05-16T07:54:36;99074.03;;;14.22;100.00
60258;BME280;46115;44.484;11.314;2023-05-16T07:58:40;99092.06;;;14.70;100.00
60258;BME280;46115;44.484;11.314;2023-05-16T08:02:43;99094.84;;;14.58;100.00
60258;BME280;46115;44.484;11.314;2023-05-16T08:06:45;99102.69;;;14.39;100.00
60258;BME280;46115;44.484;11.314;2023-05-16T08:10:48;99115.06;;;14.50;100.00
60258;BME280;46115;44.484;11.314;2023-05-16T08:14:51;99106.13;;;14.51;100.00
60258;BME280;46115;44.484;11.314;2023-05-16T08:18:54;99107.41;;;14.56;100.00
60258;BME280;46115;44.484;11.314;2023-05-16T08:22:56;99109.97;;;14.68;100.00
60258;BME280;46115;44.484;11.314;2023-05-16T08:26:59;99115.88;;;14.71;100.00
60258;BME280;46115;44.484;11.314;2023-05-16T08:31:03;99122.72;;;14.64;100.00
60258;BME280;46115;44.484;11.314;2023-05-16T08:35:06;99111.13;;;14.44;100.00
60258;BME280;46115;44.484;11.314;2023-05-16T08:39:09;99125.53;;;14.72;100.00
60258;BME280;46115;44.484;11.314;2023-05-16T08:43:12;99105.78;;;14.65;100.00
60258;BME280;46115;44.484;11.314;2023-05-16T08:47:18;99110.00;;;14.77;100.00
60258;BME280;46115;44.484;11.314;2023-05-16T08:51:24;99100.94;;;14.89;100.00
60258;BME280;46115;44.484;11.314;2023-05-16T08:55:27;99105.34;;;15.00;100.00
60258;BME280;46115;44.484;11.314;2023-05-16T08:59:31;99102.53;;;15.11;100.00
60258;BME280;46115;44.484;11.314;2023-05-16T09:03:36;99105.00;;;14.84;100.00
60258;BME280;46115;44.484;11.314;2023-05-16T09:07:39;99084.38;;;14.76;100.00
60258;BME280;46115;44.484;11.314;2023-05-16T09:11:42;99096.94;;;15.14;100.00
60258;BME280;46115;44.484;11.314;2023-05-16T09:15:44;99109.81;;;15.00;100.00
60258;BME280;46115;44.484;11.314;2023-05-16T09:19:48;99110.97;;;15.16;100.00
60258;BME280;46115;44.484;11.314;2023-05-16T09:23:54;99125.94;;;15.08;100.00
60258;BME280;46115;44.484;11.314;2023-05-16T09:27:57;99102.00;;;15.17;100.00
60258;BME280;46115;44.484;11.314;2023-05-16T09:32:05;99115.31;;;15.17;100.00
60258;BME280;46115;44.484;11.314;2023-05-16T09:36:12;99110.16;;;15.45;100.00
60258;BME280;46115;44.484;11.314;2023-05-16T09:40:15;99096.28;;;15.41;100.00
60258;BME280;46115;44.484;11.314;2023-05-16T09:44:17;99104.72;;;15.46;100.00
60258;BME280;46115;44.484;11.314;2023-05-16T09:48:20;99109.31;;;15.54;100.00
60258;BME280;46115;44.484;11.314;2023-05-16T09:52:27;99093.91;;;15.48;100.00
60258;BME280;46115;44.484;11.314;2023-05-16T09:56:29;99111.47;;;15.60;100.00
60258;BME280;46115;44.484;11.314;2023-05-16T10:00:32;99104.00;;;15.54;100.00
60258;BME280;46115;44.484;11.314;2023-05-16T10:04:35;99107.66;;;15.34;100.00
60258;BME280;46115;44.484;11.314;2023-05-16T10:08:41;99123.91;;;15.31;100.00
60258;BME280;46115;44.484;11.314;2023-05-16T10:12:44;99116.75;;;15.31;100.00
60258;BME280;46115;44.484;11.314;2023-05-16T10:16:47;99118.84;;;15.37;100.00
60258;BME280;46115;44.484;11.314;2023-05-16T10:20:52;99128.25;;;15.32;100.00
60258;BME280;46115;44.484;11.314;2023-05-16T10:25:02;99085.56;;;14.93;100.00
60258;BME280;46115;44.484;11.314;2023-05-16T10:29:05;99119.75;;;14.97;100.00
60258;BME280;46115;44.484;11.314;2023-05-16T10:33:09;99125.53;;;15.12;100.00
60258;BME280;46115;44.484;11.314;2023-05-16T10:37:12;99123.13;;;15.09;100.00
60258;BME280;46115;44.484;11.314;2023-05-16T10:41:17;99112.91;;;15.05;100.00
60258;BME280;46115;44.484;11.314;2023-05-16T10:45:22;99109.41;;;15.04;100.00
60258;BME280;46115;44.484;11.314;2023-05-16T10:49:26;99100.84;;;15.01;100.00
60258;BME280;46115;44.484;11.314;2023-05-16T10:53:30;99107.16;;;15.09;100.00
60258;BME280;46115;44.484;11.314;2023-05-16T10:57:34;99109.56;;;15.12;100.00
60258;BME280;46115;44.484;11.314;2023-05-16T11:01:39;99121.88;;;15.13;100.00
60258;BME280;46115;44.484;11.314;2023-05-16T11:05:42;99110.97;;;15.16;100.00
60258;BME280;46115;44.484;11.314;2023-05-16T11:09:45;99101.59;;;15.22;100.00
60258;BME280;46115;44.484;11.314;2023-05-16T11:13:54;99097.66;;;15.26;100.00
60258;BME280;46115;44.484;11.314;2023-05-16T11:18:04;99094.44;;;15.22;100.00
60258;BME280;46115;44.484;11.314;2023-05-16T11:22:22;99075.66;;;15.14;100.00
60258;BME280;46115;44.484;11.314;2023-05-16T11:26:25;99089.25;;;15.11;100.00
60258;BME280;46115;44.484;11.314;2023-05-16T11:30:28;99083.91;;;15.11;100.00
60258;BME280;46115;44.484;11.314;2023-05-16T11:34:34;99071.59;;;15.20;100.00
60258;BME280;46115;44.484;11.314;2023-05-16T11:38:37;99058.84;;;15.23;100.00
60258;BME280;46115;44.484;11.314;2023-05-16T11:42:45;99076.97;;;15.29;100.00
60258;BME280;46115;44.484;11.314;2023-05-16T11:46:50;99076.50;;;15.24;100.00
60258;BME280;46115;44.484;11.314;2023-05-16T11:50:52;99072.75;;;15.27;100.00
60258;BME280;46115;44.484;11.314;2023-05-16T11:54:55;99078.22;;;15.35;100.00
60258;BME280;46115;44.484;11.314;2023-05-16T11:59:01;99092.38;;;15.45;100.00
60258;BME280;46115;44.484;11.314;2023-05-16T12:03:05;99088.59;;;15.38;100.00
60258;BME280;46115;44.484;11.314;2023-05-16T12:07:08;99087.19;;;15.44;100.00
60258;BME280;46115;44.484;11.314;2023-05-16T12:11:10;99085.91;;;15.48;100.00
60258;BME280;46115;44.484;11.314;2023-05-16T12:15:13;99098.25;;;15.49;100.00
60258;BME280;46115;44.484;11.314;2023-05-16T12:19:18;99098.25;;;15.29;100.00
60258;BME280;46115;44.484;11.314;2023-05-16T12:23:21;99100.34;;;15.45;100.00
60258;BME280;46115;44.484;11.314;2023-05-16T12:27:24;99101.19;;;15.55;100.00
60258;BME280;46115;44.484;11.314;2023-05-16T12:31:28;99102.50;;;15.71;100.00
60258;BME280;46115;44.484;11.314;2023-05-16T12:35:33;99109.59;;;15.41;100.00
60258;BME280;46115;44.484;11.314;2023-05-16T12:39:36;99097.75;;;15.65;100.00
60258;BME280;46115;44.484;11.314;2023-05-16T12:43:39;99100.00;;;15.69;100.00
60258;BME280;46115;44.484;11.314;2023-05-16T12:47:42;99101.78;;;15.78;100.00
60258;BME280;46115;44.484;11.314;2023-05-16T12:51:49;99100.81;;;15.70;100.00
60258;BME280;46115;44.484;11.314;2023-05-16T12:55:52;99098.72;;;15.83;100.00
60258;BME280;46115;44.484;11.314;2023-05-16T12:59:54;99092.94;;;15.49;100.00
60258;BME280;46115;44.484;11.314;2023-05-16T13:03:57;99108.25;;;15.66;100.00
60258;BME280;46115;44.484;11.314;2023-05-16T13:08:00;99100.41;;;15.74;100.00
60258;BME280;46115;44.484;11.314;2023-05-16T13:12:04;99086.34;;;15.34;100.00
60258;BME280;46115;44.484;11.314;2023-05-16T13:16:06;99089.44;;;15.39;100.00
60258;BME280;46115;44.484;11.314;2023-05-16T13:20:10;99090.22;;;15.10;100.00
60258;BME280;46115;44.484;11.314;2023-05-16T13:24:16;99092.38;;;15.55;100.00
60258;BME280;46115;44.484;11.314;2023-05-16T13:28:18;99088.16;;;15.43;100.00
60258;BME280;46115;44.484;11.314;2023-05-16T13:32:21;99090.53;;;15.46;100.00
60258;BME280;46115;44.484;11.314;2023-05-16T13:36:24;99083.44;;;15.66;100.00
60258;BME280;46115;44.484;11.314;2023-05-16T13:40:28;99097.84;;;15.34;100.00
60258;BME280;46115;44.484;11.314;2023-05-16T13:44:30;99102.75;;;15.39;100.00
60258;BME280;46115;44.484;11.314;2023-05-16T13:48:33;99097.97;;;15.33;100.00
60258;BME280;46115;44.484;11.314;2023-05-16T13:52:35;99112.56;;;15.48;100.00
60258;BME280;46115;44.484;11.314;2023-05-16T13:56:39;99114.66;;;15.44;100.00
60258;BME280;46115;44.484;11.314;2023-05-16T14:00:42;99098.63;;;15.15;100.00
60258;BME280;46115;44.484;11.314;2023-05-16T14:04:45;99131.00;;;15.20;100.00
60258;BME280;46115;44.484;11.314;2023-05-16T14:08:47;99130.16;;;15.10;100.00
60258;BME280;46115;44.484;11.314;2023-05-16T14:12:51;99141.84;;;15.38;100.00
60258;BME280;46115;44.484;11.314;2023-05-16T14:16:53;99141.56;;;15.41;100.00
60258;BME280;46115;44.484;11.314;2023-05-16T14:20:56;99132.25;;;15.16;100.00
60258;BME280;46115;44.484;11.314;2023-05-16T14:24:58;99133.72;;;15.40;100.00
60258;BME280;46115;44.484;11.314;2023-05-16T14:29:02;99129.28;;;15.69;100.00
60258;BME280;46115;44.484;11.314;2023-05-16T14:33:04;99131.06;;;15.49;100.00
60258;BME280;46115;44.484;11.314;2023-05-16T14:37:07;99129.84;;;15.63;100.00
60258;BME280;46115;44.484;11.314;2023-05-16T14:41:10;99125.50;;;15.72;100.00
60258;BME280;46115;44.484;11.314;2023-05-16T14:45:15;99131.63;;;15.53;100.00
60258;BME280;46115;44.484;11.314;2023-05-16T14:49:18;99136.53;;;15.48;100.00
60258;BME280;46115;44.484;11.314;2023-05-16T14:53:20;99130.34;;;15.47;100.00
60258;BME280;46115;44.484;11.314;2023-05-16T14:57:22;99138.22;;;15.58;100.00
60258;BME280;46115;44.484;11.314;2023-05-16T15:01:26;99147.88;;;15.40;100.00
60258;BME280;46115;44.484;11.314;2023-05-16T15:05:29;99155.66;;;15.72;100.00
60258;BME280;46115;44.484;11.314;2023-05-16T15:09:31;99155.72;;;15.42;100.00
60258;BME280;46115;44.484;11.314;2023-05-16T15:13:34;99154.91;;;15.01;100.00
60258;BME280;46115;44.484;11.314;2023-05-16T15:17:37;99161.81;;;15.13;100.00
60258;BME280;46115;44.484;11.314;2023-05-16T15:21:40;99164.59;;;15.12;100.00
60258;BME280;46115;44.484;11.314;2023-05-16T15:25:42;99171.72;;;15.02;100.00
60258;BME280;46115;44.484;11.314;2023-05-16T15:29:45;99175.97;;;14.83;100.00
60258;BME280;46115;44.484;11.314;2023-05-16T15:33:49;99178.13;;;15.29;100.00
60258;BME280;46115;44.484;11.314;2023-05-16T15:37:52;99185.22;;;15.19;100.00
60258;BME280;46115;44.484;11.314;2023-05-16T15:41:56;99180.28;;;14.54;100.00
60258;BME280;46115;44.484;11.314;2023-05-16T15:45:59;99207.72;;;14.75;100.00
60258;BME280;46115;44.484;11.314;2023-05-16T15:50:03;99191.19;;;14.72;100.00
60258;BME280;46115;44.484;11.314;2023-05-16T15:54:06;99198.28;;;14.61;100.00
60258;BME280;46115;44.484;11.314;2023-05-16T15:58:09;99196.44;;;14.41;100.00
60258;BME280;46115;44.484;11.314;2023-05-16T16:02:11;99184.47;;;14.47;100.00
60258;BME280;46115;44.484;11.314;2023-05-16T16:06:15;99211.41;;;14.84;100.00
60258;BME280;46115;44.484;11.314;2023-05-16T16:10:18;99206.00;;;14.95;100.00
60258;BME280;46115;44.484;11.314;2023-05-16T16:14:21;99209.88;;;14.91;100.00
60258;BME280;46115;44.484;11.314;2023-05-16T16:18:23;99166.75;;;14.57;100.00
60258;BME280;46115;44.484;11.314;2023-05-16T16:22:27;99209.84;;;15.12;100.00
60258;BME280;46115;44.484;11.314;2023-05-16T16:26:30;99213.03;;;14.96;100.00
60258;BME280;46115;44.484;11.314;2023-05-16T16:30:32;99220.34;;;15.13;100.00
60258;BME280;46115;44.484;11.314;2023-05-16T16:34:34;99219.81;;;15.19;100.00
60258;BME280;46115;44.484;11.314;2023-05-16T16:38:38;99217.69;;;15.13;100.00
60258;BME280;46115;44.484;11.314;2023-05-16T16:42:40;99222.44;;;15.10;100.00
60258;BME280;46115;44.484;11.314;2023-05-16T16:46:43;99228.31;;;15.04;100.00
60258;BME280;46115;44.484;11.314;2023-05-16T16:50:46;99232.53;;;15.06;100.00
60258;BME280;46115;44.484;11.314;2023-05-16T16:54:50;99233.13;;;14.89;100.00
60258;BME280;46115;44.484;11.314;2023-05-16T16:58:53;99240.81;;;15.13;100.00
60258;BME280;46115;44.484;11.314;2023-05-16T17:02:55;99248.97;;;15.21;100.00
60258;BME280;46115;44.484;11.314;2023-05-16T17:06:58;99244.88;;;14.86;100.00
60258;BME280;46115;44.484;11.314;2023-05-16T17:11:02;99226.47;;;14.74;100.00
60258;BME280;46115;44.484;11.314;2023-05-16T17:15:08;99248.59;;;14.95;100.00
60258;BME280;46115;44.484;11.314;2023-05-16T17:19:11;99215.03;;;14.83;100.00
60258;BME280;46115;44.484;11.314;2023-05-16T17:23:13;99245.66;;;14.98;100.00
60258;BME280;46115;44.484;11.314;2023-05-16T17:27:17;99252.25;;;15.34;100.00
60258;BME280;46115;44.484;11.314;2023-05-16T17:31:20;99252.41;;;15.42;100.00
60258;BME280;46115;44.484;11.314;2023-05-16T17:35:22;99253.38;;;15.01;100.00
60258;BME280;46115;44.484;11.314;2023-05-16T17:39:25;99258.16;;;15.07;100.00
60258;BME280;46115;44.484;11.314;2023-05-16T17:43:29;99248.38;;;14.87;100.00
60258;BME280;46115;44.484;11.314;2023-05-16T17:47:31;99259.50;;;14.92;100.00
60258;BME280;46115;44.484;11.314;2023-05-16T17:51:48;99269.09;;;15.14;100.00
60258;BME280;46115;44.484;11.314;2023-05-16T17:55:51;99245.13;;;15.04;100.00
60258;BME280;46115;44.484;11.314;2023-05-16T17:59:55;99244.47;;;14.91;100.00
60258;BME280;46115;44.484;11.314;2023-05-16T18:03:57;99263.19;;;15.01;100.00
60258;BME280;46115;44.484;11.314;2023-05-16T18:08:00;99282.50;;;15.03;100.00
60258;BME280;46115;44.484;11.314;2023-05-16T18:12:04;99282.47;;;14.93;100.00
60258;BME280;46115;44.484;11.314;2023-05-16T18:16:08;99268.63;;;14.99;100.00
60258;BME280;46115;44.484;11.314;2023-05-16T18:20:11;99274.00;;;14.88;100.00
60258;BME280;46115;44.484;11.314;2023-05-16T18:24:14;99283.38;;;14.61;100.00
60258;BME280;46115;44.484;11.314;2023-05-16T18:28:16;99291.53;;;14.70;100.00
60258;BME280;46115;44.484;11.314;2023-05-16T18:32:20;99304.44;;;14.74;100.00
60258;BME280;46115;44.484;11.314;2023-05-16T18:36:23;99291.53;;;14.49;100.00
60258;BME280;46115;44.484;11.314;2023-05-16T18:40:25;99305.41;;;14.52;100.00
60258;BME280;46115;44.484;11.314;2023-05-16T18:44:28;99305.88;;;14.57;100.00
60258;BME280;46115;44.484;11.314;2023-05-16T18:48:32;99312.56;;;14.73;100.00
60258;BME280;46115;44.484;11.314;2023-05-16T18:52:35;99319.91;;;15.01;100.00
60258;BME280;46115;44.484;11.314;2023-05-16T18:56:40;99303.09;;;14.80;100.00
60258;BME280;46115;44.484;11.314;2023-05-16T19:00:43;99315.34;;;14.71;100.00
60258;BME280;46115;44.484;11.314;2023-05-16T19:04:46;99328.78;;;14.90;100.00
60258;BME280;46115;44.484;11.314;2023-05-16T19:08:49;99334.38;;;15.08;100.00
60258;BME280;46115;44.484;11.314;2023-05-16T19:12:51;99336.84;;;14.47;100.00
60258;BME280;46115;44.484;11.314;2023-05-16T19:16:53;99325.22;;;14.59;100.00
60258;BME280;46115;44.484;11.314;2023-05-16T19:20:57;99323.97;;;14.84;100.00
60258;BME280;46115;44.484;11.314;2023-05-16T22:06:08;99420.06;;;13.60;100.00
60258;BME280;46115;44.484;11.314;2023-05-16T22:10:10;99412.91;;;13.38;100.00
60258;BME280;46115;44.484;11.314;2023-05-16T22:14:14;99409.78;;;13.33;100.00
60258;BME280;46115;44.484;11.314;2023-05-16T22:18:17;99420.75;;;13.51;100.00
60258;BME280;46115;44.484;11.314;2023-05-16T22:22:22;99426.19;;;13.03;100.00
60258;BME280;46115;44.484;11.314;2023-05-16T22:26:25;99389.50;;;12.97;100.00
60258;BME280;46115;44.484;11.314;2023-05-16T22:30:27;99411.59;;;13.43;100.00
60258;BME280;46115;44.484;11.314;2023-05-16T22:34:29;99401.25;;;13.63;100.00
60258;BME280;46115;44.484;11.314;2023-05-16T22:38:33;99404.34;;;13.34;100.00
60258;BME280;46115;44.484;11.314;2023-05-16T22:42:35;99406.19;;;13.67;100.00
60258;BME280;46115;44.484;11.314;2023-05-16T22:46:38;99426.34;;;13.70;100.00
60258;BME280;46115;44.484;11.314;2023-05-16T22:50:40;99411.00;;;13.73;100.00
60258;BME280;46115;44.484;11.314;2023-05-16T22:54:44;99405.56;;;13.53;100.00
60258;BME280;46115;44.484;11.314;2023-05-16T22:58:46;99397.50;;;13.88;100.00
60258;BME280;46115;44.484;11.314;2023-05-16T23:02:49;99401.94;;;13.87;100.00
60258;BME280;46115;44.484;11.314;2023-05-16T23:06:51;99400.03;;;13.89;100.00
60258;BME280;46115;44.484;11.314;2023-05-16T23:10:55;99400.88;;;13.90;100.00
60258;BME280;46115;44.484;11.314;2023-05-16T23:14:57;99400.03;;;13.67;100.00
60258;BME280;46115;44.484;11.314;2023-05-16T23:18:59;99399.91;;;13.57;100.00
60258;BME280;46115;44.484;11.314;2023-05-16T23:23:02;99394.47;;;13.48;100.00
60258;BME280;46115;44.484;11.314;2023-05-16T23:27:06;99396.38;;;13.46;100.00
60258;BME280;46115;44.484;11.314;2023-05-16T23:31:08;99400.03;;;13.67;100.00
60258;BME280;46115;44.484;11.314;2023-05-16T23:35:10;99400.16;;;13.65;100.00
60258;BME280;46115;44.484;11.314;2023-05-16T23:39:13;99398.69;;;13.84;100.00